createdAt,value
2018-10-12T00:01:34.929Z,76.94
2018-10-12T00:04:04.184Z,77.32
2018-10-12T00:06:33.655Z,77.11
2018-10-12T00:09:03.067Z,77.11
2018-10-12T00:11:32.314Z,76.66
2018-10-12T00:14:01.625Z,77.25
2018-10-12T00:16:30.961Z,77.06
2018-10-12T00:19:00.188Z,77.15
2018-10-12T00:21:30.562Z,77.01
2018-10-12T00:23:59.823Z,76.89
2018-10-12T00:26:29.078Z,76.54
2018-10-12T00:28:58.412Z,76.51
2018-10-12T00:31:27.701Z,76.68
2018-10-12T00:33:56.949Z,76.37
2018-10-12T00:36:27.368Z,76.77
2018-10-12T00:38:56.643Z,76.89
2018-10-12T00:41:25.882Z,76.84
2018-10-12T00:43:55.199Z,76.80
2018-10-12T00:46:24.507Z,76.54
2018-10-12T00:48:53.985Z,76.54
2018-10-12T00:51:23.323Z,75.99
2018-10-12T00:53:52.650Z,76.63
2018-10-12T00:56:22.051Z,77.00
2018-10-12T00:58:51.315Z,76.23
2018-10-12T01:01:20.885Z,76.77
2018-10-12T01:03:50.539Z,77.19
2018-10-12T01:06:19.857Z,77.46
2018-10-12T01:08:49.168Z,77.61
2018-10-12T01:11:18.698Z,77.25
2018-10-12T01:13:48.087Z,77.50
2018-10-12T01:16:17.408Z,77.03
2018-10-12T01:18:46.729Z,77.45
2018-10-12T01:21:16.090Z,76.89
2018-10-12T01:23:45.411Z,77.36
2018-10-12T01:26:25.561Z,77.25
2018-10-12T01:28:57.025Z,76.66
2018-10-12T01:31:27.376Z,76.61
2018-10-12T01:33:56.654Z,76.97
2018-10-12T01:36:30.285Z,76.10
2018-10-12T01:38:59.585Z,76.77
2018-10-12T01:41:28.817Z,76.31
2018-10-12T01:43:59.115Z,76.42
2018-10-12T01:46:28.408Z,75.97
2018-10-12T01:48:57.661Z,75.98
2018-10-12T01:54:28.701Z,75.20
2018-10-12T01:56:58.825Z,74.33
2018-10-12T01:59:35.829Z,74.16
2018-10-12T02:02:06.705Z,73.64
2018-10-12T02:04:36.040Z,73.70
2018-10-12T02:07:05.369Z,73.66
2018-10-12T02:09:34.715Z,72.49
2018-10-12T02:12:04.051Z,72.89
2018-10-12T02:14:33.281Z,73.07
2018-10-12T02:17:02.642Z,72.68
2018-10-12T02:19:31.953Z,72.51
2018-10-12T02:22:01.253Z,72.45
2018-10-12T02:24:30.683Z,72.25
2018-10-12T02:26:59.935Z,72.23
2018-10-12T02:29:29.249Z,72.24
2018-10-12T02:31:59.591Z,72.22
2018-10-12T02:34:28.857Z,72.22
2018-10-12T02:36:58.748Z,72.71
2018-10-12T02:39:28.048Z,72.66
2018-10-12T02:41:57.354Z,72.56
2018-10-12T02:44:26.648Z,73.07
2018-10-12T02:46:55.850Z,73.27
2018-10-12T02:49:26.171Z,73.43
2018-10-12T02:51:55.490Z,73.44
2018-10-12T02:54:24.755Z,73.67
2018-10-12T02:56:54.052Z,74.09
2018-10-12T02:59:24.441Z,74.07
2018-10-12T03:01:53.680Z,73.79
2018-10-12T03:04:22.966Z,74.06
2018-10-12T03:06:52.443Z,73.97
2018-10-12T03:09:21.727Z,74.00
2018-10-12T03:11:51.019Z,74.14
2018-10-12T03:14:20.322Z,73.93
2018-10-12T03:16:49.658Z,73.96
2018-10-12T03:19:18.885Z,73.83
2018-10-12T03:21:48.231Z,74.04
2018-10-12T03:24:17.519Z,74.17
2018-10-12T03:26:46.804Z,74.19
2018-10-12T03:29:16.097Z,74.94
2018-10-12T03:31:45.349Z,74.48
2018-10-12T03:34:14.627Z,74.73
2018-10-12T03:36:43.940Z,74.72
2018-10-12T03:39:13.197Z,74.42
2018-10-12T03:41:42.550Z,74.54
2018-10-12T03:44:11.848Z,74.63
2018-10-12T03:46:41.127Z,74.73
2018-10-12T03:49:10.474Z,74.42
2018-10-12T03:51:39.885Z,75.06
2018-10-12T03:54:09.214Z,75.96
2018-10-12T03:56:38.464Z,75.74
2018-10-12T03:59:07.930Z,75.54
2018-10-12T04:01:37.225Z,75.86
2018-10-12T04:04:06.455Z,76.15
2018-10-12T04:06:35.766Z,76.83
2018-10-12T04:09:06.755Z,76.20
2018-10-12T04:11:36.101Z,77.02
2018-10-12T04:14:05.399Z,76.58
2018-10-12T04:16:34.650Z,77.26
2018-10-12T04:19:03.950Z,76.82
2018-10-12T04:21:33.173Z,76.39
2018-10-12T04:24:02.496Z,76.33
2018-10-12T04:26:31.834Z,77.04
2018-10-12T04:29:01.101Z,76.83
2018-10-12T04:31:30.395Z,76.79
2018-10-12T04:33:59.801Z,76.54
2018-10-12T04:36:29.187Z,77.44
2018-10-12T04:39:09.853Z,77.07
2018-10-12T04:41:39.150Z,77.24
2018-10-12T04:44:08.410Z,76.62
2018-10-12T04:46:41.130Z,77.18
2018-10-12T04:49:11.840Z,76.64
2018-10-12T04:51:55.692Z,77.01
2018-10-12T04:54:25.370Z,77.00
2018-10-12T04:56:54.668Z,76.43
2018-10-12T04:59:24.038Z,75.93
2018-10-12T05:01:53.363Z,76.22
2018-10-12T05:04:22.640Z,77.01
2018-10-12T05:06:51.943Z,76.01
2018-10-12T05:09:21.233Z,77.30
2018-10-12T05:11:50.547Z,76.67
2018-10-12T05:14:19.794Z,76.56
2018-10-12T05:16:49.273Z,76.73
2018-10-12T05:19:18.554Z,76.36
2018-10-12T05:21:47.799Z,77.31
2018-10-12T05:24:17.254Z,77.66
2018-10-12T05:26:46.493Z,77.94
2018-10-12T05:29:15.825Z,76.94
2018-10-12T05:31:45.229Z,77.26
2018-10-12T05:34:14.528Z,77.09
2018-10-12T05:36:43.871Z,77.05
2018-10-12T05:39:14.238Z,76.61
2018-10-12T05:41:44.462Z,76.83
2018-10-12T05:44:13.697Z,77.16
2018-10-12T05:46:44.025Z,77.32
2018-10-12T05:49:24.322Z,78.71
2018-10-12T05:51:53.693Z,78.37
2018-10-12T05:54:23.030Z,78.52
2018-10-12T05:56:53.317Z,78.62
2018-10-12T05:59:22.591Z,77.96
2018-10-12T06:01:51.853Z,78.05
2018-10-12T06:04:21.106Z,78.83
2018-10-12T06:06:50.536Z,78.51
2018-10-12T06:09:19.798Z,78.16
2018-10-12T06:11:49.099Z,78.53
2018-10-12T06:14:18.516Z,77.65
2018-10-12T06:16:49.882Z,78.04
2018-10-12T06:19:19.225Z,77.54
2018-10-12T06:21:48.474Z,77.74
2018-10-12T06:24:17.767Z,77.00
2018-10-12T06:26:47.128Z,76.92
2018-10-12T06:29:16.337Z,76.65
2018-10-12T06:31:45.622Z,77.15
2018-10-12T06:34:15.087Z,78.06
2018-10-12T06:36:44.430Z,77.36
2018-10-12T06:39:13.788Z,77.86
2018-10-12T06:41:43.232Z,78.27
2018-10-12T06:44:12.415Z,77.53
2018-10-12T06:46:41.808Z,77.99
2018-10-12T06:49:10.938Z,76.98
2018-10-12T06:51:40.202Z,76.14
2018-10-12T06:54:09.966Z,75.65
2018-10-12T06:56:39.370Z,76.00
2018-10-12T06:59:09.154Z,75.85
2018-10-12T07:01:38.444Z,75.39
2018-10-12T07:04:09.086Z,75.19
2018-10-12T07:06:38.367Z,75.21
2018-10-12T07:09:09.967Z,75.00
2018-10-12T07:11:39.289Z,74.72
2018-10-12T07:14:08.914Z,74.62
2018-10-12T07:16:38.018Z,73.83
2018-10-12T07:19:07.317Z,73.35
2018-10-12T07:21:36.594Z,72.79
2018-10-12T07:24:07.040Z,72.83
2018-10-12T07:26:36.386Z,73.14
2018-10-12T07:29:05.997Z,72.80
2018-10-12T07:31:35.431Z,72.25
2018-10-12T07:34:04.674Z,72.19
2018-10-12T07:36:34.052Z,72.34
2018-10-12T07:39:03.476Z,72.18
2018-10-12T07:41:32.732Z,72.49
2018-10-12T07:44:01.991Z,72.21
2018-10-12T07:46:31.258Z,72.10
2018-10-12T07:49:00.551Z,71.50
2018-10-12T07:51:30.865Z,70.98
2018-10-12T07:54:00.383Z,71.34
2018-10-12T07:56:29.637Z,70.42
2018-10-12T07:58:59.130Z,70.38
2018-10-12T08:01:28.618Z,70.38
2018-10-12T08:03:57.810Z,69.89
2018-10-12T08:06:27.218Z,69.16
2018-10-12T08:08:56.558Z,68.94
2018-10-12T08:11:25.862Z,69.12
2018-10-12T08:13:55.588Z,68.80
2018-10-12T08:16:24.816Z,68.95
2018-10-12T08:18:54.079Z,68.17
2018-10-12T08:21:23.321Z,68.25
2018-10-12T08:23:52.679Z,67.14
2018-10-12T08:26:22.007Z,66.23
2018-10-12T08:28:51.282Z,63.76
2018-10-12T08:31:20.607Z,60.72
2018-10-12T08:33:49.866Z,57.21
2018-10-12T08:36:19.147Z,55.62
2018-10-12T08:38:48.363Z,54.87
2018-10-12T08:41:17.722Z,53.03
2018-10-12T08:43:47.105Z,50.78
2018-10-12T08:46:16.342Z,49.90
2018-10-12T08:48:45.643Z,47.64
2018-10-12T08:51:15.025Z,46.92
2018-10-12T08:53:44.294Z,46.14
2018-10-12T08:56:13.756Z,42.29
2018-10-12T08:58:43.026Z,41.34
2018-10-12T09:01:12.270Z,40.55
2018-10-12T09:03:41.569Z,40.61
2018-10-12T09:06:10.835Z,39.02
2018-10-12T09:08:40.137Z,38.86
2018-10-12T09:11:09.623Z,39.02
2018-10-12T09:13:38.994Z,39.64
2018-10-12T09:16:08.330Z,41.48
2018-10-12T09:18:37.729Z,40.47
2018-10-12T09:21:07.398Z,39.68
2018-10-12T09:23:37.095Z,40.30
2018-10-12T09:26:06.765Z,40.46
2018-10-12T09:28:36.042Z,40.44
2018-10-12T09:31:05.416Z,40.98
2018-10-12T09:33:34.791Z,39.72
2018-10-12T09:36:04.555Z,40.15
2018-10-12T09:38:33.859Z,39.54
2018-10-12T09:41:03.190Z,39.21
2018-10-12T09:43:32.582Z,38.52
2018-10-12T09:46:01.978Z,37.66
2018-10-12T09:48:31.288Z,36.06
2018-10-12T09:51:00.558Z,36.25
2018-10-12T09:53:29.886Z,35.87
2018-10-12T09:55:59.410Z,36.83
2018-10-12T09:58:28.621Z,35.97
2018-10-12T10:01:03.317Z,34.81
2018-10-12T10:03:37.710Z,34.56
2018-10-12T10:06:07.038Z,35.48
2018-10-12T10:08:36.534Z,34.46
2018-10-12T10:11:05.737Z,35.38
2018-10-12T10:13:35.159Z,35.44
2018-10-12T10:16:04.544Z,36.88
2018-10-12T10:18:33.931Z,37.05
2018-10-12T10:21:03.204Z,35.90
2018-10-12T10:23:33.142Z,36.59
2018-10-12T10:26:02.460Z,36.35
2018-10-12T10:28:31.802Z,36.90
2018-10-12T10:31:01.171Z,36.56
2018-10-12T10:33:30.487Z,37.17
2018-10-12T10:35:59.881Z,37.20
2018-10-12T10:38:29.222Z,36.16
2018-10-12T10:40:58.501Z,37.38
2018-10-12T10:43:27.869Z,38.12
2018-10-12T10:45:57.174Z,39.27
2018-10-12T10:48:26.474Z,39.31
2018-10-12T10:50:55.772Z,38.20
2018-10-12T10:53:25.191Z,37.49
2018-10-12T10:55:54.483Z,36.79
2018-10-12T10:58:23.778Z,36.86
2018-10-12T11:00:53.437Z,38.11
2018-10-12T11:03:22.676Z,37.12
2018-10-12T11:05:52.017Z,37.07
2018-10-12T11:08:21.303Z,38.76
2018-10-12T11:10:50.589Z,38.67
2018-10-12T11:13:19.960Z,38.34
2018-10-12T11:15:49.264Z,37.15
2018-10-12T11:18:18.564Z,38.26
2018-10-12T11:20:47.990Z,37.95
2018-10-12T11:23:17.346Z,37.21
2018-10-12T11:25:46.591Z,36.24
2018-10-12T11:28:16.097Z,35.67
2018-10-12T11:30:45.451Z,36.37
2018-10-12T11:33:14.800Z,35.52
2018-10-12T11:35:44.114Z,38.31
2018-10-12T11:38:13.431Z,38.33
2018-10-12T11:40:42.699Z,39.53
2018-10-12T11:43:23.059Z,39.09
2018-10-12T11:45:52.276Z,38.60
2018-10-12T11:48:21.857Z,38.87
2018-10-12T11:51:01.426Z,38.98
2018-10-12T11:53:30.926Z,37.81
2018-10-12T11:56:00.215Z,37.99
2018-10-12T11:58:30.668Z,39.11
2018-10-12T12:01:00.051Z,39.47
2018-10-12T12:03:29.702Z,40.23
2018-10-12T12:06:00.366Z,40.89
2018-10-12T12:08:29.634Z,40.37
2018-10-12T12:10:58.921Z,41.91
2018-10-12T12:13:28.315Z,42.26
2018-10-12T12:15:57.626Z,43.96
2018-10-12T12:18:27.005Z,46.10
2018-10-12T12:20:56.844Z,47.29
2018-10-12T12:23:26.105Z,48.58
2018-10-12T12:25:56.525Z,48.69
2018-10-12T12:28:25.862Z,48.30
2018-10-12T12:30:55.230Z,49.37
2018-10-12T12:33:24.556Z,49.68
2018-10-12T12:35:54.430Z,50.81
2018-10-12T12:38:23.236Z,51.50
2018-10-12T12:40:52.571Z,52.20
2018-10-12T12:43:21.871Z,51.28
2018-10-12T12:45:51.179Z,52.41
2018-10-12T12:48:20.669Z,51.79
2018-10-12T12:50:49.813Z,52.24
2018-10-12T12:53:19.046Z,53.23
2018-10-12T12:55:48.384Z,52.37
2018-10-12T12:58:17.739Z,52.17
2018-10-12T13:00:47.249Z,52.62
2018-10-12T13:03:16.639Z,53.56
2018-10-12T13:05:45.860Z,53.71
2018-10-12T13:08:15.078Z,54.35
2018-10-12T13:10:44.566Z,53.43
2018-10-12T13:13:13.961Z,54.25
2018-10-12T13:15:43.186Z,54.30
2018-10-12T13:18:12.455Z,53.58
2018-10-12T13:20:41.862Z,54.92
2018-10-12T13:23:11.140Z,53.24
2018-10-12T13:25:40.451Z,53.70
2018-10-12T13:28:09.774Z,52.85
2018-10-12T13:30:39.060Z,54.26
2018-10-12T13:33:08.361Z,54.38
2018-10-12T13:35:37.743Z,54.37
2018-10-12T13:38:07.331Z,53.56
2018-10-12T13:40:36.599Z,54.13
2018-10-12T13:43:06.422Z,54.43
2018-10-12T13:45:35.709Z,53.87
2018-10-12T13:48:04.998Z,53.74
2018-10-12T13:50:34.388Z,53.59
2018-10-12T13:53:04.000Z,53.39
2018-10-12T13:55:33.315Z,53.22
2018-10-12T13:58:02.687Z,53.83
2018-10-12T14:00:32.063Z,53.73
2018-10-12T14:03:01.550Z,53.51
2018-10-12T14:05:30.890Z,53.97
2018-10-12T14:08:00.258Z,53.04
2018-10-12T14:10:29.514Z,53.43
2018-10-12T14:12:58.912Z,54.13
2018-10-12T14:15:28.195Z,53.30
2018-10-12T14:17:57.538Z,53.98
2018-10-12T14:20:26.895Z,53.46
2018-10-12T14:22:56.196Z,54.87
2018-10-12T14:25:25.598Z,54.71
2018-10-12T14:27:54.926Z,54.18
2018-10-12T14:30:24.372Z,54.54
2018-10-12T14:32:53.624Z,54.62
2018-10-12T14:35:23.033Z,54.77
2018-10-12T14:37:52.489Z,55.93
2018-10-12T14:40:21.680Z,56.30
2018-10-12T14:42:51.025Z,56.34
2018-10-12T14:45:20.307Z,55.59
2018-10-12T14:47:49.811Z,55.83
2018-10-12T14:50:19.126Z,56.49
2018-10-12T14:52:48.836Z,56.11
2018-10-12T14:55:18.251Z,56.64
2018-10-12T14:57:47.632Z,56.74
2018-10-12T15:00:17.007Z,56.90
2018-10-12T15:02:46.407Z,55.92
2018-10-12T15:05:16.512Z,56.84
2018-10-12T15:07:45.871Z,56.35
2018-10-12T15:10:15.229Z,57.03
2018-10-12T15:12:44.514Z,56.36
2018-10-12T15:15:17.770Z,56.63
2018-10-12T15:17:48.397Z,56.90
2018-10-12T15:20:18.502Z,57.51
2018-10-12T15:22:47.821Z,57.21
2018-10-12T15:25:17.138Z,57.27
2018-10-12T15:27:46.612Z,57.53
2018-10-12T15:30:16.950Z,57.74
2018-10-12T15:32:46.338Z,57.98
2018-10-12T15:35:15.652Z,58.08
2018-10-12T15:37:45.424Z,59.08
2018-10-12T15:40:14.810Z,58.63
2018-10-12T15:42:44.274Z,58.84
2018-10-12T15:45:13.716Z,59.88
2018-10-12T15:47:43.108Z,59.24
2018-10-12T15:50:12.479Z,59.65
2018-10-12T15:52:41.787Z,59.93
2018-10-12T15:55:11.218Z,60.92
2018-10-12T15:57:40.516Z,60.29
2018-10-12T16:00:09.967Z,60.83
2018-10-12T16:02:39.426Z,61.20
2018-10-12T16:05:08.767Z,62.30
2018-10-12T16:07:38.031Z,62.49
2018-10-12T16:10:07.325Z,63.06
2018-10-12T16:12:38.702Z,62.23
2018-10-12T16:15:08.127Z,63.26
2018-10-12T16:17:37.367Z,63.54
2018-10-12T16:20:06.684Z,63.10
2018-10-12T16:22:36.127Z,63.84
2018-10-12T16:25:16.583Z,63.61
2018-10-12T16:27:46.030Z,64.20
2018-10-12T16:30:16.250Z,64.37
2018-10-12T16:32:45.542Z,64.97
2018-10-12T16:35:14.870Z,64.93
2018-10-12T16:37:44.218Z,65.46
2018-10-12T16:40:13.671Z,66.01
2018-10-12T16:42:42.960Z,65.96
2018-10-12T16:45:19.002Z,66.57
2018-10-12T16:47:48.350Z,66.73
2018-10-12T16:50:17.669Z,66.20
2018-10-12T16:52:46.894Z,66.53
2018-10-12T16:55:16.306Z,67.43
2018-10-12T16:57:45.690Z,67.21
2018-10-12T17:00:14.919Z,68.60
2018-10-12T17:02:44.317Z,68.01
2018-10-12T17:05:13.609Z,69.25
2018-10-12T17:07:43.034Z,69.73
2018-10-12T17:10:12.413Z,69.39
2018-10-12T17:12:41.676Z,69.85
2018-10-12T17:15:11.028Z,70.07
2018-10-12T17:17:40.531Z,70.58
2018-10-12T17:20:09.817Z,70.68
2018-10-12T17:22:39.138Z,71.36
2018-10-12T17:25:08.645Z,71.75
2018-10-12T17:27:37.968Z,72.23
2018-10-12T17:30:07.453Z,72.27
2018-10-12T17:32:36.862Z,71.79
2018-10-12T17:35:06.503Z,72.71
2018-10-12T17:37:35.824Z,72.81
2018-10-12T17:40:05.229Z,72.84
2018-10-12T17:42:34.501Z,73.00
2018-10-12T17:45:03.936Z,73.01
2018-10-12T17:47:33.202Z,73.08
2018-10-12T17:50:03.507Z,72.90
2018-10-12T17:52:32.855Z,72.81
2018-10-12T17:55:02.165Z,72.79
2018-10-12T17:57:31.469Z,73.10
2018-10-12T18:00:00.834Z,74.22
2018-10-12T18:02:30.265Z,74.11
2018-10-12T18:04:59.613Z,74.72
2018-10-12T18:07:28.944Z,75.00
2018-10-12T18:09:58.268Z,75.22
2018-10-12T18:12:28.593Z,74.86
2018-10-12T18:14:58.010Z,74.68
2018-10-12T18:17:27.311Z,75.64
2018-10-12T18:19:56.692Z,74.99
2018-10-12T18:22:26.029Z,75.31
2018-10-12T18:24:55.434Z,75.45
2018-10-12T18:27:24.710Z,75.31
2018-10-12T18:29:54.101Z,75.64
2018-10-12T18:32:23.918Z,75.52
2018-10-12T18:34:53.146Z,76.17
2018-10-12T18:37:22.438Z,75.47
2018-10-12T18:39:51.827Z,75.60
2018-10-12T18:42:21.179Z,75.85
2018-10-12T18:44:50.433Z,76.43
2018-10-12T18:47:19.875Z,76.27
2018-10-12T18:49:49.143Z,76.19
2018-10-12T18:52:18.428Z,76.63
2018-10-12T18:54:47.722Z,76.14
2018-10-12T18:57:17.000Z,76.46
2018-10-12T18:59:46.328Z,76.41
2018-10-12T19:02:15.650Z,76.07
2018-10-12T19:04:46.217Z,76.13
2018-10-12T19:07:15.416Z,76.52
2018-10-12T19:09:44.679Z,76.17
2018-10-12T19:12:13.970Z,76.24
2018-10-12T19:14:44.246Z,76.10
2018-10-12T19:17:13.519Z,76.59
2018-10-12T19:19:42.834Z,76.49
2018-10-12T19:22:12.018Z,76.71
2018-10-12T19:24:41.348Z,76.45
2018-10-12T19:27:10.668Z,77.37
2018-10-12T19:29:39.934Z,77.32
2018-10-12T19:32:09.316Z,76.35
2018-10-12T19:34:38.614Z,77.28
2018-10-12T19:37:08.117Z,77.17
2018-10-12T19:39:37.484Z,76.63
2018-10-12T19:42:06.888Z,76.96
2018-10-12T19:44:36.123Z,77.49
2018-10-12T19:47:05.422Z,77.47
2018-10-12T19:49:34.849Z,77.36
2018-10-12T19:52:04.192Z,77.72
2018-10-12T19:54:33.474Z,77.24
2018-10-12T19:57:02.835Z,77.77
2018-10-12T19:59:32.087Z,77.76
2018-10-12T20:02:01.404Z,77.67
2018-10-12T20:04:30.805Z,77.33
2018-10-12T20:07:00.078Z,77.37
2018-10-12T20:09:29.337Z,77.75
2018-10-12T20:11:58.699Z,77.00
2018-10-12T20:14:27.998Z,76.83
2018-10-12T20:16:57.354Z,76.66
2018-10-12T20:19:26.640Z,77.06
2018-10-12T20:21:55.915Z,76.57
2018-10-12T20:24:27.410Z,76.96
2018-10-12T20:26:56.606Z,76.66
2018-10-12T20:29:25.862Z,77.04
2018-10-12T20:31:55.306Z,76.04
2018-10-12T20:34:24.635Z,76.89
2018-10-12T20:36:53.972Z,76.84
2018-10-12T20:39:23.576Z,77.40
2018-10-12T20:41:52.813Z,77.30
2018-10-12T20:44:22.070Z,77.64
2018-10-12T20:46:51.442Z,76.89
2018-10-12T20:49:20.801Z,76.97
2018-10-12T20:51:50.118Z,76.89
2018-10-12T20:54:19.417Z,77.58
2018-10-12T20:56:48.771Z,77.54
2018-10-12T20:59:18.056Z,77.68
2018-10-12T21:01:47.330Z,77.35
2018-10-12T21:04:16.701Z,77.23
2018-10-12T21:06:46.065Z,77.12
2018-10-12T21:09:15.310Z,77.54
2018-10-12T21:11:44.583Z,76.90
2018-10-12T21:14:13.879Z,76.65
2018-10-12T21:16:43.232Z,77.05
2018-10-12T21:19:12.579Z,76.91
2018-10-12T21:21:41.914Z,76.76
2018-10-12T21:24:11.637Z,76.59
2018-10-12T21:26:40.923Z,76.51
2018-10-12T21:29:10.345Z,76.19
2018-10-12T21:31:39.722Z,76.29
2018-10-12T21:34:09.309Z,76.75
2018-10-12T21:36:38.578Z,76.39
2018-10-12T21:39:08.004Z,76.01
2018-10-12T21:41:37.276Z,76.85
2018-10-12T21:44:06.542Z,75.91
2018-10-12T21:46:35.828Z,76.68
2018-10-12T21:49:05.100Z,76.01
2018-10-12T21:51:34.359Z,76.28
2018-10-12T21:54:05.775Z,75.38
2018-10-12T21:56:35.052Z,75.57
2018-10-12T21:59:04.463Z,75.43
2018-10-12T22:01:34.795Z,75.51
2018-10-12T22:04:04.154Z,75.32
2018-10-12T22:06:33.499Z,74.64
2018-10-12T22:09:05.629Z,75.06
2018-10-12T22:11:35.014Z,74.95
2018-10-12T22:14:04.871Z,74.22
2018-10-12T22:16:34.193Z,74.50
2018-10-12T22:19:03.480Z,73.90
2018-10-12T22:21:32.980Z,74.37
2018-10-12T22:24:02.289Z,74.03
2018-10-12T22:26:31.556Z,74.02
2018-10-12T22:29:00.874Z,74.42
2018-10-12T22:31:30.302Z,73.53
2018-10-12T22:33:59.604Z,73.48
2018-10-12T22:36:28.978Z,73.96
2018-10-12T22:38:58.334Z,73.57
2018-10-12T22:41:27.601Z,73.03
2018-10-12T22:43:57.021Z,72.86
2018-10-12T22:46:26.353Z,73.62
2018-10-12T22:48:55.683Z,73.67
2018-10-12T22:51:25.052Z,73.17
2018-10-12T22:53:54.355Z,72.78
2018-10-12T22:56:23.691Z,73.79
2018-10-12T22:58:52.982Z,73.55
2018-10-12T23:01:22.387Z,73.57
2018-10-12T23:03:51.818Z,73.68
2018-10-12T23:06:21.095Z,73.96
2018-10-12T23:08:50.454Z,73.88
2018-10-12T23:11:21.766Z,74.26
2018-10-12T23:13:51.133Z,74.15
2018-10-12T23:16:20.366Z,74.63
2018-10-12T23:18:57.558Z,74.89
2018-10-12T23:21:26.827Z,74.29
2018-10-12T23:23:56.060Z,74.63
2018-10-12T23:26:25.527Z,75.16
2018-10-12T23:28:54.789Z,74.51
2018-10-12T23:31:24.107Z,75.71
2018-10-12T23:34:04.699Z,75.60
2018-10-12T23:36:34.105Z,75.07
2018-10-12T23:39:05.037Z,75.94
2018-10-12T23:41:34.370Z,75.28
2018-10-12T23:44:03.742Z,76.08
2018-10-12T23:46:33.021Z,75.58
2018-10-12T23:49:02.628Z,76.08
2018-10-12T23:51:32.006Z,76.18
2018-10-12T23:54:01.354Z,76.93
2018-10-12T23:56:30.599Z,76.15
2018-10-12T23:58:59.954Z,76.52
